createdAt,value
2023-03-29T00:00:35.798Z,5.40
2023-03-29T00:03:04.643Z,5.40
2023-03-29T00:05:35.037Z,5.30
2023-03-29T00:08:04.293Z,5.30
2023-03-29T00:10:33.633Z,5.20
2023-03-29T00:13:02.195Z,5.10
2023-03-29T00:15:30.395Z,5.00
2023-03-29T00:17:59.820Z,4.90
2023-03-29T00:20:28.702Z,4.80
2023-03-29T00:22:56.858Z,4.90
2023-03-29T00:25:24.878Z,4.90
2023-03-29T00:27:53.136Z,4.90
2023-03-29T00:30:21.327Z,4.90
2023-03-29T00:32:49.425Z,5.00
2023-03-29T00:35:19.411Z,5.00
2023-03-29T00:37:50.987Z,4.90
2023-03-29T00:40:19.718Z,4.90
2023-03-29T00:42:47.717Z,5.00
2023-03-29T00:45:19.290Z,5.10
2023-03-29T00:47:48.912Z,5.10
2023-03-29T00:50:22.136Z,5.20
2023-03-29T00:52:54.825Z,5.20
2023-03-29T00:55:24.893Z,5.30
2023-03-29T00:57:55.703Z,5.30
2023-03-29T01:00:25.494Z,5.30
2023-03-29T01:02:59.563Z,5.30
2023-03-29T01:05:31.792Z,5.30
2023-03-29T01:08:02.250Z,5.30
2023-03-29T01:10:33.890Z,5.30
2023-03-29T01:13:03.637Z,5.20
2023-03-29T01:15:32.214Z,5.10
2023-03-29T01:18:01.770Z,5.10
2023-03-29T01:20:36.583Z,5.00
2023-03-29T01:23:13.991Z,5.00
2023-03-29T01:25:47.530Z,5.00
2023-03-29T01:28:18.354Z,5.00
2023-03-29T01:30:49.467Z,4.90
2023-03-29T01:33:21.208Z,4.80
2023-03-29T01:35:51.953Z,4.80
2023-03-29T01:38:22.573Z,4.70
2023-03-29T01:40:50.826Z,4.70
2023-03-29T01:43:23.891Z,4.70
2023-03-29T01:45:56.587Z,4.60
2023-03-29T01:48:28.245Z,4.60
2023-03-29T01:51:00.079Z,4.50
2023-03-29T01:53:31.094Z,4.40
2023-03-29T01:56:01.267Z,4.30
2023-03-29T01:58:33.608Z,4.20
2023-03-29T02:01:05.826Z,4.10
2023-03-29T02:03:42.142Z,4.10
2023-03-29T02:06:11.511Z,4.10
2023-03-29T02:08:40.646Z,4.30
2023-03-29T02:11:09.014Z,4.30
2023-03-29T02:13:38.434Z,4.30
2023-03-29T02:16:09.606Z,4.20
2023-03-29T02:18:37.753Z,4.20
2023-03-29T02:21:06.075Z,4.10
2023-03-29T02:23:36.452Z,4.10
2023-03-29T02:26:06.635Z,4.10
2023-03-29T02:28:34.760Z,4.10
2023-03-29T02:31:06.727Z,4.20
2023-03-29T02:33:42.162Z,4.30
2023-03-29T02:36:13.353Z,4.30
2023-03-29T02:38:42.021Z,4.20
2023-03-29T02:41:10.689Z,4.10
2023-03-29T02:43:40.702Z,4.20
2023-03-29T02:46:11.949Z,4.30
2023-03-29T02:48:40.449Z,5.50
2023-03-29T02:51:10.686Z,4.60
2023-03-29T02:53:41.359Z,4.70
2023-03-29T02:56:09.862Z,4.70
2023-03-29T02:58:38.637Z,4.70
2023-03-29T03:01:07.488Z,4.60
2023-03-29T03:03:37.014Z,4.70
2023-03-29T03:06:05.861Z,4.80
2023-03-29T03:08:34.142Z,4.80
2023-03-29T03:11:02.409Z,4.80
2023-03-29T03:13:30.818Z,4.80
2023-03-29T03:15:58.907Z,4.70
2023-03-29T03:18:27.650Z,4.80
2023-03-29T03:20:57.682Z,4.80
2023-03-29T03:23:26.141Z,5.00
2023-03-29T03:25:55.294Z,4.90
2023-03-29T03:28:24.097Z,4.60
2023-03-29T03:30:52.267Z,4.60
2023-03-29T03:33:26.958Z,4.80
2023-03-29T03:36:15.706Z,4.80
2023-03-29T03:38:46.130Z,4.60
2023-03-29T03:41:14.252Z,4.50
2023-03-29T03:43:43.955Z,4.60
2023-03-29T03:46:13.024Z,4.70
2023-03-29T03:48:42.007Z,4.90
2023-03-29T03:51:18.507Z,4.90
2023-03-29T03:53:47.234Z,5.00
2023-03-29T03:56:15.337Z,5.10
2023-03-29T03:59:12.797Z,5.10
2023-03-29T04:01:51.394Z,4.80
2023-03-29T04:04:23.236Z,4.70
2023-03-29T04:07:03.669Z,4.70
2023-03-29T04:09:55.492Z,4.90
2023-03-29T04:12:34.537Z,4.90
2023-03-29T04:15:03.564Z,4.70
2023-03-29T04:17:32.968Z,4.50
2023-03-29T04:20:21.834Z,4.40
2023-03-29T04:22:51.395Z,4.30
2023-03-29T04:25:21.451Z,4.10
2023-03-29T04:27:49.784Z,3.90
2023-03-29T04:30:36.538Z,3.80
2023-03-29T04:33:18.458Z,3.80
2023-03-29T04:35:51.985Z,3.80
2023-03-29T04:38:23.312Z,3.80
2023-03-29T04:40:54.837Z,3.80
2023-03-29T04:43:40.332Z,3.90
2023-03-29T04:46:28.175Z,4.00
2023-03-29T04:49:20.239Z,4.10
2023-03-29T04:51:51.982Z,4.20
2023-03-29T04:54:25.521Z,4.30
2023-03-29T04:57:17.011Z,4.40
2023-03-29T05:03:11.548Z,4.70
2023-03-29T05:05:44.524Z,5.60
2023-03-29T05:08:12.672Z,5.10
2023-03-29T05:11:01.383Z,5.20
2023-03-29T05:13:30.465Z,5.40
2023-03-29T05:16:00.929Z,5.40
2023-03-29T05:18:29.559Z,5.60
2023-03-29T05:20:58.810Z,5.70
2023-03-29T05:23:28.876Z,5.80
2023-03-29T05:26:36.939Z,5.90
2023-03-29T05:29:05.512Z,6.00
2023-03-29T05:34:24.124Z,6.10
2023-03-29T05:36:59.578Z,6.10
2023-03-29T05:39:34.542Z,6.10
2023-03-29T05:42:06.800Z,6.10
2023-03-29T05:44:46.439Z,6.20
2023-03-29T05:47:20.702Z,6.20
2023-03-29T05:49:48.800Z,6.30
2023-03-29T05:52:22.221Z,6.30
2023-03-29T05:54:50.587Z,6.30
2023-03-29T05:57:21.806Z,6.40
2023-03-29T05:59:50.170Z,6.40
2023-03-29T06:02:19.062Z,6.40
2023-03-29T06:04:52.055Z,6.40
2023-03-29T06:07:26.156Z,6.40
2023-03-29T06:10:17.921Z,6.40
2023-03-29T06:12:51.911Z,6.50
2023-03-29T06:15:24.153Z,6.50
2023-03-29T06:17:57.489Z,6.50
2023-03-29T06:20:26.275Z,6.30
2023-03-29T06:23:00.480Z,6.50
2023-03-29T06:25:28.887Z,6.60
2023-03-29T06:27:59.966Z,6.60
2023-03-29T06:30:28.542Z,6.70
2023-03-29T06:32:59.569Z,6.70
2023-03-29T06:35:49.402Z,6.90
2023-03-29T06:38:22.234Z,6.90
2023-03-29T06:41:08.881Z,6.90
2023-03-29T06:44:09.388Z,7.00
2023-03-29T06:47:02.442Z,7.00
2023-03-29T06:49:31.966Z,7.00
2023-03-29T06:52:15.847Z,7.10
2023-03-29T06:54:46.496Z,7.10
2023-03-29T06:57:14.626Z,8.80
2023-03-29T06:59:44.250Z,7.10
2023-03-29T07:02:34.119Z,7.10
2023-03-29T07:05:13.550Z,7.10
2023-03-29T07:08:00.232Z,7.30
2023-03-29T07:10:49.678Z,7.30
2023-03-29T07:13:42.403Z,7.60
2023-03-29T07:16:14.502Z,7.60
2023-03-29T07:18:54.858Z,7.60
2023-03-29T07:21:46.106Z,7.60
2023-03-29T07:24:19.249Z,7.80
2023-03-29T07:27:03.241Z,7.90
2023-03-29T07:29:33.608Z,8.00
2023-03-29T07:32:04.299Z,8.10
2023-03-29T07:34:44.591Z,8.20
2023-03-29T07:37:24.617Z,8.30
2023-03-29T07:39:56.732Z,8.40
2023-03-29T07:42:38.539Z,8.50
2023-03-29T07:45:09.686Z,8.50
2023-03-29T07:47:50.049Z,8.60
2023-03-29T07:50:18.469Z,8.70
2023-03-29T07:52:46.538Z,8.70
2023-03-29T07:55:15.809Z,8.70
2023-03-29T07:58:10.955Z,8.70
2023-03-29T08:00:39.438Z,8.70
2023-03-29T08:03:28.854Z,8.70
2023-03-29T08:05:57.150Z,8.70
2023-03-29T08:08:25.470Z,8.80
2023-03-29T08:10:58.125Z,8.80
2023-03-29T08:13:37.347Z,8.70
2023-03-29T08:16:37.285Z,8.80
2023-03-29T08:19:12.755Z,8.90
2023-03-29T08:21:53.854Z,8.80
2023-03-29T08:24:25.102Z,8.70
2023-03-29T08:26:58.721Z,8.70
2023-03-29T08:29:27.516Z,8.70
2023-03-29T08:31:57.169Z,8.70
2023-03-29T08:34:27.270Z,8.60
2023-03-29T08:37:19.105Z,8.60
2023-03-29T08:39:51.876Z,8.60
2023-03-29T08:42:54.056Z,8.70
2023-03-29T08:45:29.373Z,8.70
2023-03-29T08:48:04.399Z,8.70
2023-03-29T08:50:39.017Z,8.70
2023-03-29T08:53:09.212Z,8.80
2023-03-29T08:55:58.017Z,9.00
2023-03-29T08:58:45.152Z,9.20
2023-03-29T09:01:13.648Z,9.40
2023-03-29T09:03:54.257Z,9.60
2023-03-29T09:06:35.954Z,9.80
2023-03-29T09:09:16.978Z,10.00
2023-03-29T09:11:56.575Z,10.00
2023-03-29T09:14:36.583Z,10.00
2023-03-29T09:17:15.107Z,9.90
2023-03-29T09:19:46.807Z,10.00
2023-03-29T09:22:22.422Z,10.00
2023-03-29T09:25:01.609Z,10.00
2023-03-29T09:27:35.358Z,10.00
2023-03-29T09:30:33.095Z,10.00
2023-03-29T09:33:06.560Z,10.10
2023-03-29T09:35:52.651Z,10.10
2023-03-29T09:38:23.511Z,10.00
2023-03-29T09:40:54.950Z,10.10
2023-03-29T09:43:28.892Z,10.00
2023-03-29T09:45:58.456Z,10.00
2023-03-29T09:48:27.649Z,10.10
2023-03-29T09:50:58.423Z,10.10
2023-03-29T09:53:28.226Z,10.20
2023-03-29T09:56:03.287Z,10.20
2023-03-29T09:58:46.389Z,10.20
2023-03-29T10:01:17.388Z,10.30
2023-03-29T10:03:50.106Z,10.40
2023-03-29T10:06:18.980Z,10.50
2023-03-29T10:08:56.647Z,10.50
2023-03-29T10:11:30.700Z,10.50
2023-03-29T10:14:01.971Z,10.60
2023-03-29T10:16:31.148Z,10.70
2023-03-29T10:18:59.316Z,10.80
2023-03-29T10:21:30.069Z,10.80
2023-03-29T10:23:59.646Z,10.90
2023-03-29T10:26:29.878Z,10.90
2023-03-29T10:29:00.506Z,11.00
2023-03-29T10:31:30.268Z,11.10
2023-03-29T10:33:58.923Z,11.10
2023-03-29T10:36:27.768Z,11.20
2023-03-29T10:38:58.507Z,11.30
2023-03-29T10:41:29.670Z,11.30
2023-03-29T10:44:03.917Z,11.40
2023-03-29T10:46:33.337Z,11.40
2023-03-29T10:49:05.099Z,11.50
2023-03-29T10:51:37.524Z,11.60
2023-03-29T10:54:08.081Z,11.60
2023-03-29T10:56:42.638Z,11.60
2023-03-29T10:59:17.586Z,11.60
2023-03-29T11:01:49.837Z,11.70
2023-03-29T11:04:22.971Z,11.80
2023-03-29T11:06:57.432Z,11.80
2023-03-29T11:09:27.670Z,11.80
2023-03-29T11:12:15.074Z,11.90
2023-03-29T11:14:48.748Z,11.80
2023-03-29T11:17:21.972Z,11.80
2023-03-29T11:19:56.891Z,11.80
2023-03-29T11:22:27.120Z,11.80
2023-03-29T11:25:03.390Z,11.90
2023-03-29T11:27:36.394Z,12.00
2023-03-29T11:30:08.403Z,12.00
2023-03-29T11:32:42.412Z,12.20
2023-03-29T11:35:25.606Z,12.20
2023-03-29T11:37:57.273Z,12.40
2023-03-29T11:40:36.091Z,12.40
2023-03-29T11:43:09.200Z,12.50
2023-03-29T11:45:39.913Z,12.40
2023-03-29T11:48:13.949Z,12.40
2023-03-29T11:50:44.859Z,12.40
2023-03-29T11:53:16.116Z,12.50
2023-03-29T11:55:44.597Z,12.50
2023-03-29T11:58:18.487Z,12.90
2023-03-29T12:00:49.019Z,12.50
2023-03-29T12:03:20.373Z,12.50
2023-03-29T12:05:51.615Z,12.60
2023-03-29T12:08:21.545Z,12.50
2023-03-29T12:10:52.790Z,12.60
2023-03-29T12:13:27.497Z,12.80
2023-03-29T12:15:58.702Z,12.90
2023-03-29T12:18:29.790Z,12.90
2023-03-29T12:20:59.563Z,12.80
2023-03-29T12:23:30.754Z,12.80
2023-03-29T12:26:03.885Z,12.80
2023-03-29T12:28:40.274Z,12.90
2023-03-29T12:31:13.336Z,12.80
2023-03-29T12:33:53.435Z,12.90
2023-03-29T12:36:49.612Z,12.90
2023-03-29T12:39:47.606Z,12.90
2023-03-29T12:42:34.037Z,12.90
2023-03-29T12:45:29.469Z,12.90
2023-03-29T12:47:58.616Z,12.90
2023-03-29T12:50:28.794Z,12.90
2023-03-29T12:53:04.276Z,13.00
2023-03-29T12:55:34.408Z,13.00
2023-03-29T12:58:03.329Z,13.00
2023-03-29T13:00:45.607Z,13.00
2023-03-29T13:03:22.520Z,13.00
2023-03-29T13:06:00.172Z,13.10
2023-03-29T13:08:33.824Z,13.30
2023-03-29T13:13:50.928Z,13.60
2023-03-29T13:16:22.373Z,13.70
2023-03-29T13:19:01.310Z,13.90
2023-03-29T13:21:34.585Z,14.20
2023-03-29T13:24:08.036Z,14.50
2023-03-29T13:26:47.652Z,14.80
2023-03-29T13:29:22.836Z,15.10
2023-03-29T13:31:57.339Z,15.30
2023-03-29T13:34:34.828Z,15.50
2023-03-29T13:37:07.702Z,15.60
2023-03-29T13:39:38.322Z,15.50
2023-03-29T13:42:08.138Z,15.40
2023-03-29T13:44:44.183Z,15.10
2023-03-29T13:47:28.749Z,15.00
2023-03-29T13:49:59.095Z,15.00
2023-03-29T13:52:28.749Z,15.10
2023-03-29T13:55:00.783Z,15.50
2023-03-29T13:57:36.240Z,15.60
2023-03-29T14:00:11.784Z,15.60
2023-03-29T14:02:47.255Z,15.50
2023-03-29T14:05:17.992Z,15.20
2023-03-29T14:07:47.799Z,15.00
2023-03-29T14:10:18.041Z,14.90
2023-03-29T14:12:46.951Z,14.80
2023-03-29T14:15:21.311Z,14.70
2023-03-29T14:17:53.791Z,14.60
2023-03-29T14:20:22.627Z,14.50
2023-03-29T14:22:50.662Z,14.50
2023-03-29T14:25:21.360Z,14.40
2023-03-29T14:27:49.854Z,14.40
2023-03-29T14:30:20.356Z,14.40
2023-03-29T14:32:51.538Z,14.40
2023-03-29T14:35:24.244Z,14.40
2023-03-29T14:37:52.969Z,14.30
2023-03-29T14:40:22.153Z,14.30
2023-03-29T14:42:51.367Z,14.20
2023-03-29T14:45:23.268Z,14.20
2023-03-29T14:47:52.675Z,14.20
2023-03-29T14:50:27.111Z,14.20
2023-03-29T14:52:57.205Z,14.10
2023-03-29T14:55:26.179Z,14.10
2023-03-29T14:57:55.674Z,14.10
2023-03-29T15:00:30.272Z,14.10
2023-03-29T15:03:01.077Z,14.00
2023-03-29T15:05:39.796Z,14.00
2023-03-29T15:08:10.295Z,13.90
2023-03-29T15:10:39.831Z,13.90
2023-03-29T15:13:09.242Z,13.80
2023-03-29T15:15:39.231Z,13.80
2023-03-29T15:18:08.317Z,13.70
2023-03-29T15:20:40.061Z,13.70
2023-03-29T15:23:23.488Z,13.60
2023-03-29T15:25:55.979Z,13.40
2023-03-29T15:28:28.634Z,13.30
2023-03-29T15:31:10.267Z,13.20
2023-03-29T15:33:39.697Z,13.00
2023-03-29T15:36:10.775Z,12.80
2023-03-29T15:38:44.461Z,12.70
2023-03-29T15:41:14.640Z,12.60
2023-03-29T15:43:43.156Z,12.60
2023-03-29T15:46:12.719Z,12.50
2023-03-29T15:48:41.708Z,12.50
2023-03-29T15:51:12.762Z,12.50
2023-03-29T15:53:41.206Z,12.50
2023-03-29T15:56:11.461Z,12.40
2023-03-29T15:58:40.674Z,12.40
2023-03-29T16:01:13.234Z,12.30
2023-03-29T16:03:42.810Z,12.30
2023-03-29T16:06:13.354Z,12.30
2023-03-29T16:08:42.574Z,12.20
2023-03-29T16:11:11.567Z,12.20
2023-03-29T16:13:40.217Z,12.30
2023-03-29T16:16:10.208Z,12.30
2023-03-29T16:18:38.875Z,12.30
2023-03-29T16:21:08.000Z,12.30
2023-03-29T16:23:38.966Z,12.20
2023-03-29T16:26:07.594Z,12.10
2023-03-29T16:28:37.344Z,12.10
2023-03-29T16:31:05.811Z,12.10
2023-03-29T16:33:34.565Z,12.10
2023-03-29T16:36:03.507Z,12.00
2023-03-29T16:38:34.193Z,12.00
2023-03-29T16:41:03.804Z,12.00
2023-03-29T16:43:33.331Z,11.90
2023-03-29T16:46:02.474Z,12.00
2023-03-29T16:48:31.366Z,12.00
2023-03-29T16:50:59.406Z,12.00
2023-03-29T16:53:30.399Z,12.00
2023-03-29T16:55:58.634Z,12.00
2023-03-29T16:58:28.290Z,12.00
2023-03-29T17:01:09.933Z,12.00
2023-03-29T17:03:39.745Z,11.90
2023-03-29T17:06:09.059Z,11.80
2023-03-29T17:08:37.885Z,11.80
2023-03-29T17:11:06.798Z,11.70
2023-03-29T17:13:37.613Z,11.70
2023-03-29T17:16:06.584Z,11.60
2023-03-29T17:18:35.254Z,11.60
2023-03-29T17:21:03.781Z,11.60
2023-03-29T17:23:34.822Z,11.60
2023-03-29T17:26:03.403Z,11.60
2023-03-29T17:28:31.650Z,11.60
2023-03-29T17:31:03.943Z,11.60
2023-03-29T17:33:32.003Z,11.60
2023-03-29T17:36:03.456Z,11.50
2023-03-29T17:38:34.437Z,11.50
2023-03-29T17:41:04.866Z,11.50
2023-03-29T17:43:33.333Z,11.40
2023-03-29T17:46:02.993Z,11.30
2023-03-29T17:48:32.794Z,11.30
2023-03-29T17:51:01.661Z,11.20
2023-03-29T17:53:31.226Z,11.10
2023-03-29T17:56:07.474Z,11.00
2023-03-29T17:58:36.270Z,10.90
2023-03-29T18:01:09.466Z,10.90
2023-03-29T18:03:38.086Z,10.90
2023-03-29T18:06:07.792Z,10.90
2023-03-29T18:08:36.575Z,10.90
2023-03-29T18:11:07.415Z,10.90
2023-03-29T18:13:35.665Z,10.80
2023-03-29T18:16:04.443Z,10.80
2023-03-29T18:18:34.673Z,10.80
2023-03-29T18:21:03.703Z,10.80
2023-03-29T18:23:32.338Z,10.70
2023-03-29T18:26:03.056Z,10.70
2023-03-29T18:28:41.998Z,10.70
2023-03-29T18:31:11.844Z,10.60
2023-03-29T18:33:43.932Z,10.60
2023-03-29T18:36:13.544Z,10.70
2023-03-29T18:38:43.496Z,10.90
2023-03-29T18:41:13.107Z,11.00
2023-03-29T18:43:43.399Z,11.10
2023-03-29T18:46:11.519Z,11.20
2023-03-29T18:48:41.232Z,11.30
2023-03-29T18:51:12.468Z,11.30
2023-03-29T18:53:42.012Z,11.40
2023-03-29T18:56:11.206Z,11.30
2023-03-29T18:58:39.699Z,11.00
2023-03-29T19:01:08.244Z,10.80
2023-03-29T19:03:37.305Z,10.60
2023-03-29T19:06:05.791Z,10.40
2023-03-29T19:08:37.487Z,10.30
2023-03-29T19:11:08.376Z,10.40
2023-03-29T19:13:36.581Z,10.30
2023-03-29T19:16:05.545Z,10.40
2023-03-29T19:18:35.980Z,10.50
2023-03-29T19:21:04.162Z,10.50
2023-03-29T19:23:32.446Z,10.50
2023-03-29T19:26:03.292Z,10.60
2023-03-29T19:28:32.163Z,10.60
2023-03-29T19:31:01.667Z,10.50
2023-03-29T19:33:30.207Z,10.50
2023-03-29T19:35:58.570Z,10.60
2023-03-29T19:38:26.666Z,10.60
2023-03-29T19:40:56.337Z,10.50
2023-03-29T19:43:26.008Z,10.40
2023-03-29T19:45:54.345Z,10.30
2023-03-29T19:48:24.383Z,10.30
2023-03-29T19:50:53.857Z,10.30
2023-03-29T19:53:23.191Z,10.20
2023-03-29T19:55:53.267Z,10.30
2023-03-29T19:58:21.653Z,10.30
2023-03-29T20:00:53.612Z,10.20
2023-03-29T20:03:22.182Z,10.20
2023-03-29T20:05:50.520Z,10.20
2023-03-29T20:08:18.841Z,10.20
2023-03-29T20:10:46.906Z,10.30
2023-03-29T20:13:19.106Z,10.30
2023-03-29T20:15:54.510Z,10.40
2023-03-29T20:18:23.819Z,10.50
2023-03-29T20:20:52.061Z,10.60
2023-03-29T20:23:20.428Z,10.70
2023-03-29T20:25:48.484Z,10.70
2023-03-29T20:28:17.803Z,10.80
2023-03-29T20:30:51.006Z,10.80
2023-03-29T20:33:21.108Z,10.90
2023-03-29T20:35:49.726Z,11.00
2023-03-29T20:38:17.891Z,11.00
2023-03-29T20:40:49.136Z,11.10
2023-03-29T20:43:18.343Z,11.10
2023-03-29T20:45:53.625Z,11.20
2023-03-29T20:48:24.749Z,11.30
2023-03-29T20:50:54.517Z,11.30
2023-03-29T20:53:22.722Z,11.30
2023-03-29T20:55:52.050Z,11.20
2023-03-29T20:58:20.451Z,11.10
2023-03-29T21:00:50.313Z,11.10
2023-03-29T21:03:18.558Z,11.10
2023-03-29T21:05:48.883Z,11.70
2023-03-29T21:08:18.164Z,11.10
2023-03-29T21:10:48.029Z,11.10
2023-03-29T21:13:17.978Z,11.00
2023-03-29T21:15:47.174Z,11.00
2023-03-29T21:18:15.650Z,11.00
2023-03-29T21:20:45.199Z,11.00
2023-03-29T21:23:15.450Z,11.00
2023-03-29T21:25:43.978Z,11.00
2023-03-29T21:28:13.296Z,11.00
2023-03-29T21:30:41.898Z,11.00
2023-03-29T21:33:10.517Z,11.00
2023-03-29T21:35:38.686Z,11.00
2023-03-29T21:38:06.974Z,11.00
2023-03-29T21:40:37.810Z,11.00
2023-03-29T21:43:06.396Z,11.00
2023-03-29T21:45:34.533Z,10.90
2023-03-29T21:48:02.990Z,10.90
2023-03-29T21:50:33.745Z,10.90
2023-03-29T21:53:02.830Z,11.00
2023-03-29T21:55:34.356Z,11.00
2023-03-29T21:58:04.046Z,11.10
2023-03-29T22:00:33.562Z,11.10
2023-03-29T22:03:01.758Z,11.10
2023-03-29T22:05:30.166Z,11.10
2023-03-29T22:07:58.647Z,11.00
2023-03-29T22:10:27.579Z,11.00
2023-03-29T22:12:56.089Z,11.00
2023-03-29T22:15:25.890Z,11.00
2023-03-29T22:17:57.701Z,10.90
2023-03-29T22:20:27.637Z,10.90
2023-03-29T22:22:56.006Z,10.80
2023-03-29T22:25:24.597Z,10.80
2023-03-29T22:27:52.651Z,10.80
2023-03-29T22:30:22.504Z,10.80
2023-03-29T22:32:52.026Z,10.80
2023-03-29T22:35:20.907Z,10.80
2023-03-29T22:37:48.916Z,10.80
2023-03-29T22:40:17.969Z,10.80
2023-03-29T22:42:46.484Z,10.80
2023-03-29T22:45:14.594Z,10.80
2023-03-29T22:47:43.203Z,10.80
2023-03-29T22:50:13.054Z,10.80
2023-03-29T22:52:41.642Z,10.80
2023-03-29T22:55:10.396Z,10.90
2023-03-29T22:57:40.846Z,10.90
2023-03-29T23:00:10.405Z,10.90
2023-03-29T23:02:39.291Z,10.90
2023-03-29T23:05:07.938Z,10.90
2023-03-29T23:07:37.609Z,10.90
2023-03-29T23:10:06.863Z,10.90
2023-03-29T23:12:36.178Z,10.90
2023-03-29T23:15:05.258Z,10.90
2023-03-29T23:17:34.752Z,11.00
2023-03-29T23:20:07.154Z,10.90
2023-03-29T23:22:37.465Z,11.00
2023-03-29T23:25:06.890Z,11.00
2023-03-29T23:27:34.924Z,11.00
2023-03-29T23:30:03.561Z,11.00
2023-03-29T23:32:31.692Z,11.00
2023-03-29T23:35:01.523Z,11.00
2023-03-29T23:37:30.710Z,11.00
2023-03-29T23:40:01.246Z,11.00
2023-03-29T23:42:30.765Z,11.00
2023-03-29T23:45:00.342Z,11.00
2023-03-29T23:47:28.702Z,11.00
2023-03-29T23:49:57.417Z,11.00
2023-03-29T23:52:25.957Z,11.10
2023-03-29T23:54:54.682Z,11.90
2023-03-29T23:57:26.940Z,11.10
2023-03-29T23:59:55.718Z,11.10
